»·PEaware :: N149CD KCMA-KLGB

N149CD :: KCMA-KLGB

FLIGHT INFORMATION

Flight Status: Arrived
Operator: Privately registered:
United States
More flights under this callsign
Pilot: Nathan E. (30132)
Aircraft: CESSNA 172 SKYHAWK
(C172)
More flights by this aircraft type
Origin: KCMA Camarillo
United States
Destination: KLGB Long Beach
United States
More flights between these airports :: More routes between these airports
Route: VTU044 GINNA V326 VNY V186 ADAMM V394 SLI
File this flight plan on PilotEdge
Remarks: TEC route VTUP6
Altitude:
(Current/Filed)
5,000ft
Speed:
(Current/Filed)
110kts
Departed: 14-Dec-20 05:39 PM
Arrived: 14-Dec-20 06:37 PM
Distance/Time
Traveled:
53nm/0:58
Distance/Time
To Go:
Arrived

Flight Plot

Page will automatically refresh every two minutes.


Map Options




Map Legend


Flown Route
Filed Route
Departure Airport
Arrival Airport
Navaid (VOR, NDB)
Fix

Horizontal Profiles

Position Reports

Time Latitude Longitude Heading Altitude Ground
Speed
14-Dec-20 17:20 34.210154 -119.078110 90 76ft 0kts
14-Dec-20 17:20 34.210154 -119.078110 90 76ft 0kts
14-Dec-20 17:21 34.210154 -119.078110 90 76ft 0kts
14-Dec-20 17:23 34.210154 -119.078110 90 76ft 0kts
14-Dec-20 17:23 34.210154 -119.078110 90 76ft 0kts
14-Dec-20 17:24 34.210154 -119.078110 90 76ft 0kts
14-Dec-20 17:25 34.210154 -119.078110 90 77ft 0kts
14-Dec-20 17:26 34.210154 -119.078110 90 76ft 0kts
14-Dec-20 17:27 34.210154 -119.078110 90 76ft 0kts
14-Dec-20 17:28 34.210154 -119.078110 90 76ft 0kts
14-Dec-20 17:29 34.210154 -119.078110 90 76ft 0kts
14-Dec-20 17:30 34.210154 -119.078110 90 76ft 0kts
14-Dec-20 17:31 34.210154 -119.078110 90 76ft 0kts
14-Dec-20 17:32 34.210721 -119.077937 0 78ft 7kts
14-Dec-20 17:33 34.210913 -119.081761 268 76ft 15kts
14-Dec-20 17:34 34.212061 -119.084186 319 75ft 0kts
14-Dec-20 17:35 34.212062 -119.084187 319 75ft 0kts
14-Dec-20 17:36 34.212592 -119.084619 356 75ft 9kts
14-Dec-20 17:37 34.213685 -119.084839 270 76ft 0kts
14-Dec-20 17:38 34.215158 -119.104421 267 593ft 69kts
14-Dec-20 17:39 34.216230 -119.127159 266 1495ft 66kts
14-Dec-20 17:40 34.216867 -119.148867 266 2359ft 63kts
14-Dec-20 17:41 34.216635 -119.169724 266 3176ft 61kts
14-Dec-20 17:42 34.215240 -119.190064 266 3949ft 60kts
14-Dec-20 17:43 34.211134 -119.209763 228 4673ft 74kts
14-Dec-20 17:44 34.196227 -119.187976 74 4996ft 131kts
14-Dec-20 17:45 34.200685 -119.143204 79 4988ft 136kts
14-Dec-20 17:46 34.204241 -119.097332 83 4989ft 137kts
14-Dec-20 17:47 34.207577 -119.051183 85 4991ft 137kts
14-Dec-20 17:48 34.210789 -119.005677 86 4992ft 135kts
14-Dec-20 17:49 34.213976 -118.960329 87 4991ft 135kts
14-Dec-20 17:50 34.217144 -118.915136 87 4992ft 134kts
14-Dec-20 17:51 34.220272 -118.870278 87 4991ft 133kts
14-Dec-20 17:52 34.222783 -118.825619 92 4991ft 132kts
14-Dec-20 17:53 34.223013 -118.780960 92 4991ft 132kts
14-Dec-20 17:54 34.223116 -118.735817 89 4989ft 135kts
14-Dec-20 17:55 34.223186 -118.690134 87 4986ft 136kts
14-Dec-20 17:56 34.223259 -118.644101 83 4986ft 137kts
14-Dec-20 17:57 34.223240 -118.598902 81 4985ft 132kts
14-Dec-20 17:58 34.223315 -118.555542 77 4978ft 125kts
14-Dec-20 17:59 34.223381 -118.512753 80 4994ft 127kts
14-Dec-20 18:00 34.216506 -118.469650 100 5007ft 135kts
14-Dec-20 18:01 34.203872 -118.427074 102 5001ft 136kts
14-Dec-20 18:02 34.190831 -118.384034 103 4994ft 135kts
14-Dec-20 18:03 34.177768 -118.340957 104 4994ft 135kts
14-Dec-20 18:04 34.164520 -118.297471 105 4993ft 138kts
14-Dec-20 18:05 34.151238 -118.253845 108 4989ft 138kts
14-Dec-20 18:06 34.137976 -118.210343 111 4972ft 138kts
14-Dec-20 18:07 34.124921 -118.167599 114 4965ft 133kts
14-Dec-20 18:08 34.112243 -118.126172 115 4964ft 129kts
14-Dec-20 18:09 34.099897 -118.085886 116 4962ft 125kts
14-Dec-20 18:10 34.087883 -118.046760 117 4964ft 124kts
14-Dec-20 18:11 34.075879 -118.007690 116 4967ft 124kts
14-Dec-20 18:13 34.061759 -117.961791 116 4970ft 126kts
14-Dec-20 18:13 34.051546 -117.928632 116 4971ft 126kts
14-Dec-20 18:14 34.039177 -117.888526 116 4973ft 128kts
14-Dec-20 18:15 34.026628 -117.847895 115 4974ft 129kts
14-Dec-20 18:16 34.003795 -117.826561 196 4968ft 105kts
14-Dec-20 18:17 33.976318 -117.836832 208 4969ft 103kts
14-Dec-20 18:18 33.949236 -117.848300 203 4836ft 105kts
14-Dec-20 18:19 33.920595 -117.856517 202 4339ft 106kts
14-Dec-20 18:20 33.891457 -117.864780 199 3976ft 115kts
14-Dec-20 18:21 33.858659 -117.873970 198 3977ft 123kts
14-Dec-20 18:22 33.824893 -117.883479 197 3980ft 125kts
14-Dec-20 18:23 33.790874 -117.893054 196 3984ft 126kts
14-Dec-20 18:24 33.756255 -117.902790 196 3987ft 127kts
14-Dec-20 18:25 33.721752 -117.912481 195 3987ft 127kts
14-Dec-20 18:26 33.687353 -117.922648 212 3971ft 121kts
14-Dec-20 18:27 33.683744 -117.955886 289 3453ft 105kts
14-Dec-20 18:28 33.692508 -117.989425 292 2999ft 105kts
14-Dec-20 18:29 33.707915 -118.018723 316 2777ft 96kts
14-Dec-20 18:30 33.725718 -118.040169 315 2397ft 95kts
14-Dec-20 18:31 33.745355 -118.063814 314 1878ft 96kts
14-Dec-20 18:32 33.764060 -118.086398 313 1364ft 94kts
14-Dec-20 18:33 33.781776 -118.107795 312 894ft 78kts
14-Dec-20 18:34 33.796032 -118.125047 311 494ft 65kts
14-Dec-20 18:35 33.807660 -118.139100 310 149ft 58kts
14-Dec-20 18:36 33.814753 -118.147714 310 35ft 21kts
14-Dec-20 18:37 33.814930 -118.149251 269 36ft 0kts
14-Dec-20 18:38 33.813845 -118.150990 180 38ft 20kts
14-Dec-20 18:39 33.812578 -118.152991 180 40ft 0kts

Navigation Log

Ident Type
Flight plan parsing failed, navigation log unavailable